Time;durP1;ratioP1;P1;durP2;ratioP2;P2;SDS_P1;SDS_P2;PMS_P1;PMS_P2;Temp;Humidity;BMP_temperature;BMP_pressure;BME280_temperature;BME280_humidity;BME280_pressure;Samples;Min_cycle;Max_cycle;Signal;HPM_P1;HPM_P2
2021/05/30 00:01:23;;;;;;;1.75;1.40;;;11.00;76.10;;;;;;5035037;28;20028;-75
2021/05/30 00:03:49;;;;;;;2.28;1.70;;;10.90;76.20;;;;;;5035406;28;20022;-75
2021/05/30 00:06:14;;;;;;;1.52;1.40;;;10.90;76.40;;;;;;5035444;28;20028;-75
2021/05/30 00:08:40;;;;;;;2.53;1.80;;;10.90;76.40;;;;;;5035329;28;20031;-74
2021/05/30 00:11:06;;;;;;;1.95;1.58;;;10.80;76.30;;;;;;5035182;28;20363;-74
2021/05/30 00:13:31;;;;;;;2.58;1.95;;;10.80;76.20;;;;;;5035073;28;20050;-74
2021/05/30 00:15:57;;;;;;;2.10;1.50;;;10.80;76.20;;;;;;5034778;28;20374;-74
2021/05/30 00:18:22;;;;;;;1.38;1.13;;;10.70;76.40;;;;;;5035205;28;20048;-73
2021/05/30 00:20:48;;;;;;;1.85;1.75;;;10.70;76.50;;;;;;5035120;28;20474;-73
2021/05/30 00:23:13;;;;;;;1.83;1.50;;;10.60;76.30;;;;;;5035188;28;20017;-74
2021/05/30 00:25:39;;;;;;;2.17;1.90;;;10.70;76.40;;;;;;5035078;28;20021;-73
2021/05/30 00:28:04;;;;;;;2.53;1.60;;;10.60;76.20;;;;;;5034792;28;20037;-74
2021/05/30 00:30:30;;;;;;;4.45;1.77;;;10.50;76.30;;;;;;5034553;28;20156;-74
2021/05/30 00:32:55;;;;;;;1.60;1.50;;;10.50;76.40;;;;;;5034863;28;20036;-74
2021/05/30 00:35:21;;;;;;;2.03;1.60;;;10.50;76.40;;;;;;5034861;28;20016;-75
2021/05/30 00:37:46;;;;;;;2.05;1.52;;;10.50;76.40;;;;;;5034758;28;20491;-74
2021/05/30 00:40:12;;;;;;;2.53;1.90;;;10.50;76.30;;;;;;5016897;28;20048;-75
2021/05/30 00:42:38;;;;;;;2.00;1.70;;;10.50;76.30;;;;;;5034781;28;20363;-75
2021/05/30 00:45:05;;;;;;;1.55;1.45;;;10.50;76.90;;;;;;5034267;28;20036;-75
2021/05/30 00:47:30;;;;;;;5.25;1.50;;;10.50;76.20;;;;;;5034675;28;20080;-75
2021/05/30 00:49:55;;;;;;;2.65;1.70;;;10.40;76.20;;;;;;5016830;28;20489;-75
2021/05/30 00:52:21;;;;;;;2.08;1.35;;;10.40;76.20;;;;;;5034437;28;20022;-73
2021/05/30 00:54:47;;;;;;;3.53;2.38;;;10.30;76.10;;;;;;5034554;28;20065;-74
2021/05/30 00:57:12;;;;;;;1.52;1.42;;;10.30;76.20;;;;;;5034483;28;20028;-76
2021/05/30 00:59:40;;;;;;;1.80;1.38;;;10.30;76.20;;;;;;5016179;28;20091;-76
2021/05/30 01:02:05;;;;;;;2.20;1.50;;;10.20;76.20;;;;;;5034310;28;20029;-74
2021/05/30 01:04:31;;;;;;;1.73;1.42;;;10.20;76.30;;;;;;5015624;28;20033;-75
2021/05/30 01:06:57;;;;;;;1.42;1.20;;;10.20;76.30;;;;;;5034234;28;20048;-73
2021/05/30 01:09:25;;;;;;;1.48;1.33;;;10.10;76.20;;;;;;5034097;28;20500;-73
2021/05/30 01:11:51;;;;;;;2.33;1.20;;;10.10;76.30;;;;;;5034068;28;20029;-74
2021/05/30 01:14:17;;;;;;;1.92;1.70;;;10.00;76.50;;;;;;5033687;28;20163;-75
2021/05/30 01:16:43;;;;;;;2.75;1.35;;;10.00;76.60;;;;;;5034052;28;20104;-74
2021/05/30 01:19:10;;;;;;;2.25;1.80;;;10.00;76.60;;;;;;5033962;28;20107;-75
2021/05/30 01:21:37;;;;;;;2.33;1.25;;;10.00;76.60;;;;;;5033968;28;20018;-75
2021/05/30 01:24:03;;;;;;;1.38;1.25;;;10.00;76.70;;;;;;5033984;28;20108;-74
2021/05/30 01:26:28;;;;;;;1.88;1.42;;;9.90;76.70;;;;;;5033873;28;20041;-74
2021/05/30 01:28:54;;;;;;;2.72;1.60;;;9.90;76.90;;;;;;5015552;28;20069;-74
2021/05/30 01:31:20;;;;;;;2.17;1.55;;;9.80;76.80;;;;;;5033848;28;20018;-74
2021/05/30 01:33:45;;;;;;;1.50;1.23;;;9.80;77.00;;;;;;5033889;28;20059;-75
2021/05/30 01:36:11;;;;;;;1.45;1.35;;;9.70;77.10;;;;;;5033965;28;20109;-74
2021/05/30 01:38:37;;;;;;;1.45;1.27;;;9.80;77.10;;;;;;5033719;28;20500;-74
2021/05/30 01:41:03;;;;;;;2.15;1.48;;;9.80;77.00;;;;;;5033644;28;20079;-74
2021/05/30 01:43:29;;;;;;;1.30;1.20;;;9.80;77.00;;;;;;5033018;28;20031;-75
2021/05/30 01:45:55;;;;;;;1.40;1.30;;;9.70;77.00;;;;;;5033612;28;20018;-75
2021/05/30 01:48:20;;;;;;;1.90;1.70;;;9.70;77.00;;;;;;5033490;28;20085;-73
2021/05/30 01:50:49;;;;;;;1.75;1.63;;;9.70;77.00;;;;;;5015790;28;20482;-74
2021/05/30 01:53:16;;;;;;;1.57;1.47;;;9.70;77.00;;;;;;5015666;28;20021;-74
2021/05/30 01:58:23;;;;;;;2.03;1.40;;;9.60;77.00;;;;;;5033271;28;20482;-75
2021/05/30 02:00:49;;;;;;;1.33;1.23;;;9.50;77.00;;;;;;5033377;28;20152;-75
2021/05/30 02:03:16;;;;;;;1.33;1.08;;;9.50;77.00;;;;;;5015625;28;20389;-75
2021/05/30 02:05:46;;;;;;;2.00;1.50;;;9.50;77.00;;;;;;5015336;28;20028;-75
2021/05/30 02:08:12;;;;;;;1.17;1.10;;;9.50;77.00;;;;;;5015576;28;20041;-74
2021/05/30 02:10:38;;;;;;;2.00;1.50;;;9.50;77.00;;;;;;5033225;28;20045;-74
2021/05/30 02:13:06;;;;;;;2.88;1.80;;;9.50;77.00;;;;;;5032598;28;20138;-74
2021/05/30 02:15:33;;;;;;;2.80;1.73;;;9.40;77.00;;;;;;5015175;28;20379;-75
2021/05/30 02:17:59;;;;;;;2.55;1.90;;;9.40;77.20;;;;;;5033000;28;20399;-73
2021/05/30 02:20:34;;;;;;;2.72;2.00;;;9.30;77.20;;;;;;5015361;28;20430;-74
2021/05/30 02:23:00;;;;;;;1.60;1.50;;;9.30;77.20;;;;;;5033209;28;20121;-74
2021/05/30 02:25:26;;;;;;;1.40;1.30;;;9.30;77.10;;;;;;5033096;28;20053;-73
2021/05/30 02:27:52;;;;;;;2.63;1.80;;;9.30;77.00;;;;;;5014737;28;20025;-74
2021/05/30 02:30:19;;;;;;;2.53;1.90;;;9.40;77.10;;;;;;5033025;28;20026;-73
2021/05/30 02:32:45;;;;;;;1.65;1.42;;;9.30;77.10;;;;;;5032888;28;20072;-74
2021/05/30 02:35:14;;;;;;;1.35;1.25;;;9.30;77.10;;;;;;5033003;28;20129;-74
2021/05/30 02:37:40;;;;;;;1.53;1.30;;;9.40;77.20;;;;;;5032971;28;20026;-75
2021/05/30 02:40:06;;;;;;;1.42;1.30;;;9.40;77.20;;;;;;5032958;28;20847;-74
2021/05/30 02:42:32;;;;;;;1.85;1.17;;;9.30;77.20;;;;;;5032320;28;20080;-75
2021/05/30 02:44:57;;;;;;;2.30;1.50;;;9.30;77.40;;;;;;5033107;28;20017;-74
2021/05/30 02:47:23;;;;;;;2.08;1.35;;;9.30;77.50;;;;;;5032836;28;20079;-74
2021/05/30 02:49:48;;;;;;;2.65;1.52;;;9.30;77.50;;;;;;5032796;28;20041;-74
2021/05/30 02:52:14;;;;;;;1.73;1.50;;;9.20;77.50;;;;;;5015117;28;20422;-73
2021/05/30 02:54:40;;;;;;;1.98;1.65;;;9.20;77.60;;;;;;5033035;28;20105;-75
2021/05/30 02:57:06;;;;;;;2.75;1.85;;;9.20;77.70;;;;;;5032503;28;20018;-74
2021/05/30 02:59:31;;;;;;;2.63;1.73;;;9.20;77.80;;;;;;5032908;28;20037;-73
2021/05/30 03:01:57;;;;;;;1.85;1.65;;;9.20;77.80;;;;;;5032793;28;20021;-74
2021/05/30 03:04:22;;;;;;;3.38;1.85;;;9.20;77.80;;;;;;5015023;28;20497;-75
2021/05/30 03:06:48;;;;;;;2.55;1.70;;;9.20;77.80;;;;;;5032631;28;20026;-74
2021/05/30 03:09:13;;;;;;;2.15;1.73;;;9.20;77.80;;;;;;5032662;28;20040;-74
2021/05/30 03:11:39;;;;;;;3.00;2.20;;;9.20;77.80;;;;;;5032209;28;20094;-74
2021/05/30 03:14:04;;;;;;;2.45;1.80;;;9.20;77.80;;;;;;5032534;28;20422;-74
2021/05/30 03:16:30;;;;;;;3.08;1.95;;;9.20;77.80;;;;;;5032644;28;20553;-73
2021/05/30 03:18:55;;;;;;;2.40;1.63;;;9.20;77.80;;;;;;5032714;28;20033;-74
2021/05/30 03:21:21;;;;;;;2.88;1.80;;;9.20;77.90;;;;;;5032518;28;20014;-75
2021/05/30 03:23:46;;;;;;;1.75;1.40;;;9.20;78.00;;;;;;5032452;28;20486;-74
2021/05/30 03:26:12;;;;;;;2.35;1.60;;;9.10;78.00;;;;;;5032181;28;20032;-74
2021/05/30 03:28:38;;;;;;;1.80;1.45;;;9.10;78.00;;;;;;5034272;28;20037;-72
2021/05/30 03:31:04;;;;;;;2.30;1.80;;;9.10;78.10;;;;;;5036146;28;20075;-74
2021/05/30 03:33:30;;;;;;;1.50;1.40;;;9.10;78.20;;;;;;5036006;28;20029;-74
2021/05/30 03:36:00;;;;;;;1.95;1.30;;;9.10;78.20;;;;;;5036035;28;20052;-74
2021/05/30 03:38:28;;;;;;;1.40;1.30;;;9.10;78.80;;;;;;5035683;28;20022;-74
2021/05/30 03:41:05;;;;;;;2.38;1.55;;;9.10;78.20;;;;;;5035916;28;20470;-74
2021/05/30 03:43:32;;;;;;;1.75;1.58;;;9.20;78.20;;;;;;5035914;28;20026;-74
2021/05/30 03:45:58;;;;;;;1.73;1.63;;;9.10;78.10;;;;;;5035724;28;20025;-75
2021/05/30 03:48:23;;;;;;;1.67;1.30;;;9.10;78.20;;;;;;5035792;28;20561;-73
2021/05/30 03:50:49;;;;;;;1.80;1.35;;;9.20;78.20;;;;;;5035782;28;20047;-75
2021/05/30 03:53:19;;;;;;;1.25;1.13;;;9.20;78.80;;;;;;5035290;28;20399;-74
2021/05/30 03:55:46;;;;;;;1.90;1.52;;;9.20;78.10;;;;;;5035707;28;20021;-74
2021/05/30 03:58:12;;;;;;;1.77;1.45;;;9.20;78.10;;;;;;5035403;28;20029;-74
2021/05/30 04:00:38;;;;;;;1.63;1.40;;;9.30;78.10;;;;;;5035686;28;20030;-73
2021/05/30 04:03:05;;;;;;;2.67;2.08;;;9.30;78.10;;;;;;5035419;28;20029;-74
2021/05/30 04:05:30;;;;;;;1.48;1.33;;;9.30;78.10;;;;;;5035653;28;20100;-74
2021/05/30 04:07:56;;;;;;;2.15;1.58;;;9.30;78.10;;;;;;5034666;28;20565;-75
2021/05/30 04:10:22;;;;;;;1.83;1.50;;;9.30;78.10;;;;;;5035549;28;20018;-74
2021/05/30 04:12:47;;;;;;;1.60;1.30;;;9.30;78.20;;;;;;5017381;28;20498;-73
2021/05/30 04:15:14;;;;;;;2.17;1.52;;;9.30;78.20;;;;;;5035313;28;20063;-73
2021/05/30 04:17:40;;;;;;;3.55;2.28;;;9.30;78.20;;;;;;5035203;28;20028;-72
2021/05/30 04:20:08;;;;;;;2.70;1.98;;;9.30;78.20;;;;;;5035191;28;20101;-74
2021/05/30 04:22:34;;;;;;;1.67;1.20;;;9.30;78.20;;;;;;5034784;28;20079;-74
2021/05/30 04:25:00;;;;;;;1.40;1.30;;;9.30;78.20;;;;;;5035147;28;20025;-74
2021/05/30 04:27:25;;;;;;;1.67;1.25;;;9.40;78.20;;;;;;5035098;28;20164;-75
2021/05/30 04:29:51;;;;;;;1.83;1.45;;;9.40;78.20;;;;;;5034860;28;20064;-75
2021/05/30 04:32:16;;;;;;;2.00;1.50;;;9.50;78.20;;;;;;5034876;28;20021;-75
2021/05/30 04:34:42;;;;;;;1.52;1.40;;;9.50;78.20;;;;;;5034961;28;20025;-74
2021/05/30 04:37:07;;;;;;;2.17;1.77;;;9.50;78.30;;;;;;5034581;28;20025;-75
2021/05/30 04:39:33;;;;;;;1.60;1.50;;;9.50;78.20;;;;;;5034719;28;20386;-73
2021/05/30 04:41:59;;;;;;;1.92;1.50;;;9.60;78.20;;;;;;5034700;28;20112;-74
2021/05/30 04:44:26;;;;;;;1.48;1.38;;;9.60;78.10;;;;;;5034746;28;20505;-74
2021/05/30 04:46:51;;;;;;;1.23;1.13;;;9.70;78.10;;;;;;5016973;28;20474;-75
2021/05/30 04:49:17;;;;;;;2.28;1.70;;;9.80;78.00;;;;;;5016726;28;20033;-75
2021/05/30 04:51:43;;;;;;;2.67;2.08;;;9.80;77.80;;;;;;5016358;28;20025;-76
2021/05/30 04:54:08;;;;;;;2.15;1.88;;;9.80;77.90;;;;;;5034696;28;20381;-74
2021/05/30 04:56:34;;;;;;;2.10;1.50;;;9.90;77.90;;;;;;5034370;28;20355;-75
2021/05/30 04:58:59;;;;;;;1.27;1.13;;;9.90;77.90;;;;;;5034559;28;20025;-75
2021/05/30 05:01:25;;;;;;;3.08;1.63;;;9.90;77.80;;;;;;5034527;28;20018;-75
2021/05/30 05:03:51;;;;;;;2.28;1.50;;;9.90;77.80;;;;;;5034454;28;20485;-75
2021/05/30 05:06:16;;;;;;;2.05;1.85;;;10.00;77.80;;;;;;5033901;28;20025;-75
2021/05/30 05:08:42;;;;;;;1.65;1.40;;;10.00;77.80;;;;;;5034095;28;20474;-75
2021/05/30 05:11:09;;;;;;;2.40;1.92;;;10.10;77.80;;;;;;5034272;28;20029;-75
2021/05/30 05:13:35;;;;;;;2.72;2.20;;;10.10;77.80;;;;;;5034192;28;20037;-75
2021/05/30 05:16:01;;;;;;;1.55;1.27;;;10.10;77.80;;;;;;5034194;28;20049;-74
2021/05/30 05:18:31;;;;;;;1.73;1.48;;;10.20;77.80;;;;;;5033994;28;20481;-73
2021/05/30 05:20:56;;;;;;;2.67;1.75;;;10.30;77.80;;;;;;5033525;28;20531;-75
2021/05/30 05:23:23;;;;;;;2.25;1.70;;;10.30;77.70;;;;;;5033943;28;20038;-75
2021/05/30 05:25:53;;;;;;;1.70;1.40;;;10.50;77.80;;;;;;5016261;28;20504;-75
2021/05/30 05:28:20;;;;;;;1.52;1.30;;;10.50;77.80;;;;;;5033910;28;20036;-73
2021/05/30 05:30:46;;;;;;;1.40;1.30;;;10.60;77.80;;;;;;5016162;28;20426;-74
2021/05/30 05:33:12;;;;;;;2.42;1.45;;;10.60;77.80;;;;;;5033837;28;20056;-75
2021/05/30 05:35:37;;;;;;;2.63;1.50;;;10.60;77.70;;;;;;5033292;28;20057;-74
2021/05/30 05:38:03;;;;;;;2.67;1.88;;;10.70;77.60;;;;;;5033625;28;20025;-75
2021/05/30 05:40:29;;;;;;;1.25;1.17;;;10.80;77.70;;;;;;5033778;28;20061;-76
2021/05/30 05:42:56;;;;;;;1.70;1.50;;;10.90;77.60;;;;;;5033686;28;20018;-75
2021/05/30 05:45:23;;;;;;;1.40;1.27;;;11.00;77.50;;;;;;5033719;28;20030;-74
2021/05/30 05:47:49;;;;;;;2.15;1.85;;;11.10;77.50;;;;;;5033590;28;20017;-74
2021/05/30 05:50:17;;;;;;;1.80;1.50;;;11.20;77.40;;;;;;5032899;28;20025;-76
2021/05/30 05:52:45;;;;;;;1.67;1.40;;;11.20;77.40;;;;;;5033461;28;20028;-77
2021/05/30 05:55:14;;;;;;;1.45;1.25;;;11.30;77.30;;;;;;5015891;28;20053;-74
2021/05/30 05:57:43;;;;;;;2.03;1.52;;;11.40;77.20;;;;;;5033521;28;20028;-75
2021/05/30 06:00:11;;;;;;;1.65;1.55;;;11.50;77.20;;;;;;5015650;28;20096;-75
2021/05/30 06:02:37;;;;;;;2.38;1.70;;;11.60;77.20;;;;;;5033390;28;20109;-75
2021/05/30 06:05:07;;;;;;;1.95;1.48;;;11.60;77.20;;;;;;5032721;28;20264;-75
2021/05/30 06:07:33;;;;;;;3.83;1.58;;;11.70;77.10;;;;;;5033238;28;20096;-74
2021/05/30 06:09:59;;;;;;;3.47;2.38;;;11.80;77.20;;;;;;5033253;28;20490;-75
2021/05/30 06:12:24;;;;;;;2.30;1.88;;;11.90;77.10;;;;;;5015392;28;20055;-73
2021/05/30 06:14:50;;;;;;;2.70;1.98;;;12.10;77.00;;;;;;5033026;28;20108;-74
2021/05/30 06:17:15;;;;;;;2.67;1.70;;;12.20;76.90;;;;;;5033183;28;20049;-76
2021/05/30 06:19:41;;;;;;;2.80;1.83;;;12.20;77.00;;;;;;5014990;28;20023;-75
2021/05/30 06:22:07;;;;;;;2.28;1.67;;;12.30;76.90;;;;;;5033213;28;20032;-75
2021/05/30 06:24:34;;;;;;;1.73;1.63;;;12.40;76.90;;;;;;5033241;28;20018;-74
2021/05/30 06:27:04;;;;;;;2.58;1.55;;;12.40;77.50;;;;;;5033072;28;20057;-75
2021/05/30 06:29:30;;;;;;;3.30;2.00;;;12.50;76.90;;;;;;5015510;28;20029;-75
2021/05/30 06:31:57;;;;;;;2.00;1.60;;;12.50;77.00;;;;;;5033162;28;20018;-75
2021/05/30 06:34:23;;;;;;;2.10;1.88;;;12.60;77.00;;;;;;5032533;28;20104;-73
2021/05/30 06:36:50;;;;;;;3.72;2.17;;;12.70;76.90;;;;;;5033040;28;20212;-74
2021/05/30 06:39:16;;;;;;;2.70;1.88;;;12.80;76.90;;;;;;5032978;28;20030;-73
2021/05/30 06:41:44;;;;;;;3.88;2.92;;;12.80;76.90;;;;;;5032823;28;20026;-74
2021/05/30 06:44:09;;;;;;;3.28;2.00;;;12.80;76.90;;;;;;5033073;28;20025;-74
2021/05/30 06:46:35;;;;;;;2.40;1.60;;;12.90;77.10;;;;;;5015300;28;20608;-73
2021/05/30 06:49:01;;;;;;;2.08;1.77;;;12.90;77.00;;;;;;5032245;28;20412;-74
2021/05/30 06:51:30;;;;;;;3.53;2.17;;;13.00;77.00;;;;;;5033017;28;20027;-74
2021/05/30 06:53:56;;;;;;;3.03;1.88;;;13.10;77.00;;;;;;5032926;28;20025;-75
2021/05/30 06:56:21;;;;;;;2.40;1.60;;;13.10;76.90;;;;;;5032743;28;20017;-76
2021/05/30 06:58:47;;;;;;;3.00;1.73;;;13.20;76.90;;;;;;5015053;28;20076;-76
2021/05/30 07:01:12;;;;;;;2.75;2.00;;;13.30;76.90;;;;;;5032797;28;20029;-75
2021/05/30 07:03:38;;;;;;;2.20;1.48;;;13.30;76.80;;;;;;5034180;28;20031;-75
2021/05/30 07:06:05;;;;;;;4.40;2.75;;;13.40;76.80;;;;;;5036828;28;20441;-75
2021/05/30 07:08:30;;;;;;;2.88;2.25;;;13.50;76.60;;;;;;5018776;28;20034;-75
2021/05/30 07:10:56;;;;;;;3.17;2.10;;;13.60;77.20;;;;;;5018744;28;20187;-73
2021/05/30 07:13:22;;;;;;;2.15;1.67;;;13.80;77.10;;;;;;5018532;28;20057;-75
2021/05/30 07:15:52;;;;;;;2.75;1.80;;;13.90;76.30;;;;;;5036521;28;20029;-76
2021/05/30 07:18:19;;;;;;;1.67;1.50;;;14.00;76.20;;;;;;5018658;28;20059;-74
2021/05/30 07:20:45;;;;;;;1.92;1.38;;;14.10;76.80;;;;;;5036245;28;20047;-75
2021/05/30 07:23:14;;;;;;;2.42;1.98;;;14.10;76.20;;;;;;5036256;28;20116;-75
2021/05/30 07:25:40;;;;;;;1.83;1.45;;;14.10;76.20;;;;;;5036245;28;20018;-75
2021/05/30 07:28:06;;;;;;;2.05;1.52;;;14.20;76.30;;;;;;5036109;28;20175;-76
2021/05/30 07:30:32;;;;;;;2.35;1.65;;;14.30;76.30;;;;;;5036249;28;20017;-76
2021/05/30 07:32:57;;;;;;;3.10;2.22;;;14.40;76.20;;;;;;5035978;28;20111;-76
2021/05/30 07:35:23;;;;;;;2.33;1.80;;;14.40;76.10;;;;;;5035925;28;20018;-76
2021/05/30 07:37:48;;;;;;;2.08;1.60;;;14.50;76.10;;;;;;5035981;28;20029;-77
2021/05/30 07:40:14;;;;;;;2.17;1.77;;;14.60;76.00;;;;;;5035971;28;20462;-76
2021/05/30 07:42:42;;;;;;;3.60;1.88;;;14.70;76.00;;;;;;5036076;28;20084;-77
2021/05/30 07:45:09;;;;;;;2.90;1.80;;;14.80;75.90;;;;;;5035296;28;20356;-76
2021/05/30 07:47:34;;;;;;;2.55;1.95;;;14.80;75.80;;;;;;5017976;28;20486;-77
2021/05/30 07:50:00;;;;;;;1.85;1.45;;;14.90;75.80;;;;;;5035851;28;20033;-77
2021/05/30 07:52:26;;;;;;;2.50;1.80;;;14.90;75.80;;;;;;5035778;28;20489;-76
2021/05/30 07:54:51;;;;;;;3.25;2.05;;;15.00;75.80;;;;;;5035843;28;20026;-74
2021/05/30 07:57:17;;;;;;;1.85;1.50;;;15.10;75.70;;;;;;5035491;28;20112;-74
2021/05/30 07:59:43;;;;;;;2.38;2.08;;;15.20;75.70;;;;;;5035140;28;20091;-75
2021/05/30 08:02:08;;;;;;;2.47;1.77;;;15.20;75.60;;;;;;5035626;28;20425;-74
2021/05/30 08:04:34;;;;;;;1.85;1.70;;;15.30;75.60;;;;;;5035592;28;20051;-75
2021/05/30 08:07:00;;;;;;;2.85;1.90;;;15.30;75.60;;;;;;5035381;28;20049;-76
2021/05/30 08:09:26;;;;;;;3.40;2.47;;;15.30;75.60;;;;;;5017752;28;20040;-76
2021/05/30 08:11:53;;;;;;;2.17;1.70;;;15.40;75.50;;;;;;5035320;28;20032;-74
2021/05/30 08:14:21;;;;;;;2.50;2.05;;;15.40;75.50;;;;;;5034396;28;20045;-75
2021/05/30 08:16:46;;;;;;;3.08;2.00;;;15.50;75.60;;;;;;5035241;28;20076;-74
2021/05/30 08:19:15;;;;;;;1.98;1.63;;;15.60;75.50;;;;;;5035159;28;20021;-74
2021/05/30 08:21:41;;;;;;;2.42;1.98;;;15.70;75.40;;;;;;5035134;28;20026;-74
2021/05/30 08:24:07;;;;;;;2.45;2.03;;;15.70;75.30;;;;;;5035028;28;20405;-73
2021/05/30 08:26:32;;;;;;;2.75;1.88;;;15.80;75.20;;;;;;5035145;28;20022;-73
2021/05/30 08:28:58;;;;;;;2.40;1.77;;;15.80;75.30;;;;;;5034481;28;20041;-74
2021/05/30 08:31:23;;;;;;;2.75;2.05;;;15.90;75.30;;;;;;5034964;28;20018;-74
2021/05/30 08:33:49;;;;;;;2.30;1.85;;;16.00;75.10;;;;;;5034946;28;20033;-74
2021/05/30 08:36:14;;;;;;;2.67;1.75;;;16.10;75.10;;;;;;5035014;28;20037;-74
2021/05/30 08:38:40;;;;;;;2.00;1.50;;;16.20;75.00;;;;;;5034908;28;20330;-73
2021/05/30 08:41:06;;;;;;;1.63;1.45;;;16.30;74.90;;;;;;5034894;28;20147;-74
2021/05/30 08:43:31;;;;;;;2.25;2.00;;;16.40;74.80;;;;;;5034101;28;20021;-74
2021/05/30 08:45:57;;;;;;;4.20;2.00;;;16.50;74.70;;;;;;5034704;28;20040;-74
2021/05/30 08:48:22;;;;;;;4.22;2.75;;;16.50;74.60;;;;;;5034682;28;20037;-74
2021/05/30 08:51:02;;;;;;;2.70;2.20;;;16.60;74.40;;;;;;5034681;28;20031;-75
2021/05/30 08:53:30;;;;;;;2.45;1.90;;;16.70;74.40;;;;;;5034503;28;20083;-73
2021/05/30 08:55:56;;;;;;;2.25;1.90;;;16.70;74.40;;;;;;5034525;28;20097;-73
2021/05/30 08:58:21;;;;;;;2.92;1.77;;;16.80;74.50;;;;;;5033769;28;20053;-73
2021/05/30 09:01:07;;;;;;;3.15;2.05;;;16.90;74.30;;;;;;5034390;28;20028;-74
2021/05/30 09:03:32;;;;;;;2.10;1.90;;;17.00;74.10;;;;;;5034463;28;20473;-74
2021/05/30 09:06:14;;;;;;;3.83;2.63;;;17.10;74.00;;;;;;5034224;28;20033;-74
2021/05/30 09:08:43;;;;;;;2.50;1.90;;;17.10;73.90;;;;;;5034240;28;20091;-74
2021/05/30 09:11:09;;;;;;;2.10;1.73;;;17.20;74.00;;;;;;5016607;28;20032;-73
2021/05/30 09:13:54;;;;;;;2.65;1.65;;;17.30;73.80;;;;;;5033575;28;20084;-74
2021/05/30 09:16:21;;;;;;;1.92;1.70;;;17.40;73.70;;;;;;5016436;28;20071;-74
2021/05/30 09:18:47;;;;;;;1.77;1.63;;;17.40;73.80;;;;;;5034069;28;20385;-74
2021/05/30 09:21:14;;;;;;;2.47;1.75;;;17.60;73.70;;;;;;5034150;28;20108;-74
2021/05/30 09:23:46;;;;;;;1.52;1.27;;;17.80;73.40;;;;;;5033998;28;20025;-73
2021/05/30 09:26:19;;;;;;;2.40;1.65;;;17.90;73.10;;;;;;5015576;28;20036;-73
2021/05/30 09:29:03;;;;;;;1.80;1.45;;;18.00;73.10;;;;;;5033946;28;20041;-74
2021/05/30 09:31:29;;;;;;;2.55;1.50;;;18.10;72.90;;;;;;5033801;28;20028;-74
2021/05/30 09:33:55;;;;;;;1.58;1.23;;;18.10;72.80;;;;;;5033864;28;20030;-74
2021/05/30 09:36:21;;;;;;;1.40;1.30;;;18.20;72.70;;;;;;5033820;28;20484;-75
2021/05/30 09:38:47;;;;;;;1.40;1.30;;;18.20;72.60;;;;;;5033775;28;20075;-75
2021/05/30 09:41:16;;;;;;;1.58;1.30;;;18.30;72.60;;;;;;5033308;28;20112;-75
2021/05/30 09:43:50;;;;;;;1.30;1.20;;;18.40;72.30;;;;;;5033697;28;20025;-74
2021/05/30 09:46:17;;;;;;;0.85;0.85;;;18.40;72.20;;;;;;5015891;28;20029;-74
2021/05/30 09:48:44;;;;;;;1.50;0.90;;;18.50;72.20;;;;;;5033474;28;20029;-75
2021/05/30 09:51:39;;;;;;;1.10;1.10;;;18.60;72.20;;;;;;5033444;28;20100;-74
2021/05/30 09:54:11;;;;;;;1.40;1.30;;;18.70;72.00;;;;;;5033603;28;20032;-74
2021/05/30 09:56:47;;;;;;;1.50;1.20;;;18.70;72.00;;;;;;5015349;28;20737;-75
2021/05/30 09:59:15;;;;;;;1.13;1.00;;;18.80;72.00;;;;;;5033539;28;20079;-72
2021/05/30 10:02:01;;;;;;;1.15;1.05;;;19.00;72.00;;;;;;5033300;28;20028;-74
2021/05/30 10:04:30;;;;;;;1.75;1.40;;;19.10;71.80;;;;;;5015656;28;20436;-74
2021/05/30 10:06:56;;;;;;;1.43;1.33;;;19.20;71.70;;;;;;5033195;28;20025;-74
2021/05/30 10:09:23;;;;;;;1.50;1.40;;;19.20;71.70;;;;;;5033267;28;20307;-73
2021/05/30 10:11:49;;;;;;;1.30;1.20;;;19.30;72.20;;;;;;5032733;28;20036;-75
2021/05/30 10:14:14;;;;;;;2.17;1.40;;;19.30;71.50;;;;;;5033081;28;20476;-73
2021/05/30 10:16:40;;;;;;;1.75;1.42;;;19.30;71.50;;;;;;5033105;28;20029;-73
2021/05/30 10:19:31;;;;;;;1.77;1.40;;;19.30;71.60;;;;;;5033185;28;20057;-74
2021/05/30 10:21:59;;;;;;;1.95;1.40;;;19.50;71.50;;;;;;5033166;28;20107;-74
2021/05/30 10:24:25;;;;;;;1.35;1.25;;;19.60;71.40;;;;;;5032562;28;20355;-73
2021/05/30 10:27:19;;;;;;;1.10;1.00;;;19.70;71.20;;;;;;5033240;28;20026;-73
2021/05/30 10:30:06;;;;;;;1.23;1.13;;;19.80;71.10;;;;;;5033018;28;20115;-73
2021/05/30 10:32:32;;;;;;;1.50;1.20;;;19.90;70.90;;;;;;5033107;28;20484;-73
2021/05/30 10:35:12;;;;;;;1.27;1.10;;;19.90;70.80;;;;;;5033116;28;20025;-73
2021/05/30 10:37:44;;;;;;;1.38;1.10;;;20.00;70.80;;;;;;5034975;28;20067;-74
2021/05/30 10:40:24;;;;;;;1.45;1.35;;;20.20;70.70;;;;;;5036688;28;20486;-74
2021/05/30 10:43:13;;;;;;;2.03;1.63;;;20.30;70.20;;;;;;5037046;28;20030;-74
2021/05/30 10:45:41;;;;;;;1.42;1.30;;;20.20;70.30;;;;;;5037189;28;20029;-74
2021/05/30 10:48:07;;;;;;;1.50;1.23;;;20.30;70.30;;;;;;5036848;28;20030;-73
2021/05/30 10:50:39;;;;;;;1.33;1.13;;;20.40;70.20;;;;;;5036741;28;20563;-73
2021/05/30 10:53:54;;;;;;;1.52;1.17;;;20.40;70.10;;;;;;5036885;28;20028;-74
2021/05/30 10:56:24;;;;;;;1.20;1.10;;;20.50;69.70;;;;;;5019461;28;20037;-73
2021/05/30 10:59:16;;;;;;;1.00;0.95;;;20.50;69.90;;;;;;5036642;28;20029;-73
2021/05/30 11:01:50;;;;;;;0.95;0.90;;;20.60;69.90;;;;;;5036573;28;20108;-74
2021/05/30 11:04:25;;;;;;;1.65;1.10;;;20.60;69.70;;;;;;5036757;28;20041;-73
2021/05/30 11:07:09;;;;;;;0.80;0.80;;;20.80;69.20;;;;;;5036553;28;20032;-73
2021/05/30 11:09:58;;;;;;;0.88;0.82;;;21.00;69.20;;;;;;5018321;28;20099;-74
2021/05/30 11:12:33;;;;;;;0.90;0.90;;;21.20;68.90;;;;;;5036279;28;20048;-73
2021/05/30 11:15:07;;;;;;;1.15;0.95;;;21.20;68.90;;;;;;5036391;28;20381;-74
2021/05/30 11:17:36;;;;;;;1.13;1.02;;;21.30;68.80;;;;;;5036367;28;20074;-74
2021/05/30 11:20:03;;;;;;;1.17;1.02;;;21.40;68.80;;;;;;5036390;28;20024;-75
2021/05/30 11:22:49;;;;;;;1.13;1.00;;;21.80;68.20;;;;;;5018063;28;20036;-74
2021/05/30 11:25:18;;;;;;;0.90;0.88;;;22.70;66.40;;;;;;5036538;28;20029;-73
2021/05/30 11:27:57;;;;;;;1.10;1.05;;;23.50;65.00;;;;;;5036138;28;20061;-76
2021/05/30 11:30:46;;;;;;;0.88;0.85;;;24.10;63.70;;;;;;5036123;28;20048;-74
2021/05/30 11:33:21;;;;;;;0.68;0.68;;;24.60;62.90;;;;;;5036268;28;20083;-73
2021/05/30 11:36:08;;;;;;;0.70;0.70;;;25.00;62.50;;;;;;5036006;28;20030;-73
2021/05/30 11:39:15;;;;;;;1.15;0.88;;;25.40;61.90;;;;;;5035438;28;20156;-75
2021/05/30 11:41:51;;;;;;;0.70;0.70;;;25.90;61.40;;;;;;5028040;28;20398;-74
2021/05/30 11:44:18;;;;;;;1.88;1.00;;;26.40;60.80;;;;;;5035982;28;20022;-74
2021/05/30 11:46:57;;;;;;;0.60;0.60;;;26.50;60.60;;;;;;5035833;28;20033;-74
2021/05/30 11:49:31;;;;;;;0.70;0.70;;;26.80;60.50;;;;;;5034982;28;20034;-75
2021/05/30 11:52:13;;;;;;;0.60;0.60;;;27.00;60.30;;;;;;5035337;28;20090;-73
2021/05/30 11:54:42;;;;;;;1.08;0.70;;;27.10;60.20;;;;;;5035764;28;20088;-73
2021/05/30 11:57:10;;;;;;;0.77;0.77;;;27.10;60.10;;;;;;5017852;28;20036;-74
2021/05/30 11:59:44;;;;;;;0.60;0.60;;;26.90;60.50;;;;;;5035603;28;20018;-73
2021/05/30 12:02:23;;;;;;;0.80;0.80;;;26.80;60.80;;;;;;5035572;28;20030;-74
2021/05/30 12:04:48;;;;;;;1.17;0.85;;;26.60;61.30;;;;;;5035665;28;20020;-74
2021/05/30 12:07:19;;;;;;;0.77;0.77;;;26.40;61.50;;;;;;5035042;28;20030;-75
2021/05/30 12:09:52;;;;;;;0.65;0.65;;;26.50;61.10;;;;;;5035375;28;20036;-74
2021/05/30 12:12:41;;;;;;;0.80;0.73;;;26.50;60.90;;;;;;5035312;28;20022;-73
2021/05/30 12:15:18;;;;;;;0.85;0.70;;;26.40;61.00;;;;;;5035201;28;20048;-74
2021/05/30 12:18:02;;;;;;;0.35;0.35;;;26.40;61.30;;;;;;5035403;28;20040;-74
2021/05/30 12:20:30;;;;;;;0.68;0.57;;;26.50;61.00;;;;;;5034698;28;20032;-75
2021/05/30 12:23:14;;;;;;;0.35;0.35;;;26.50;60.90;;;;;;5035342;28;20045;-74
2021/05/30 12:25:54;;;;;;;0.95;0.73;;;26.70;60.50;;;;;;5035241;28;20029;-73
2021/05/30 12:28:27;;;;;;;0.60;0.60;;;26.60;60.40;;;;;;5035032;28;20029;-73
2021/05/30 12:30:54;;;;;;;0.68;0.68;;;26.50;60.50;;;;;;5034927;28;20026;-74
2021/05/30 12:33:21;;;;;;;0.52;0.52;;;26.60;60.60;;;;;;5035141;28;20025;-74
2021/05/30 12:35:53;;;;;;;0.70;0.70;;;26.60;60.00;;;;;;5034369;28;20029;-75
2021/05/30 12:38:23;;;;;;;0.77;0.77;;;26.80;60.10;;;;;;5035125;28;20100;-74
2021/05/30 12:40:49;;;;;;;0.60;0.60;;;26.90;59.80;;;;;;5034965;28;20028;-73
2021/05/30 12:43:15;;;;;;;0.47;0.47;;;27.10;60.00;;;;;;5034792;28;20017;-74
2021/05/30 12:46:03;;;;;;;0.65;0.65;;;27.40;59.20;;;;;;5034819;28;20032;-74
2021/05/30 12:48:58;;;;;;;0.68;0.68;;;27.50;58.90;;;;;;5034580;28;20037;-73
2021/05/30 12:51:27;;;;;;;0.60;0.60;;;27.70;58.80;;;;;;5021355;28;20034;-75
2021/05/30 12:53:53;;;;;;;0.60;0.60;;;27.90;58.50;;;;;;5034554;28;20386;-74
2021/05/30 12:56:24;;;;;;;0.30;0.30;;;28.20;58.10;;;;;;5034687;28;20018;-75
2021/05/30 12:59:15;;;;;;;0.40;0.40;;;28.50;57.50;;;;;;5034577;28;20033;-74
2021/05/30 13:01:42;;;;;;;0.32;0.32;;;28.30;57.40;;;;;;5033431;28;20037;-74